createdAt,value
2018-11-22T12:16:54.262Z,99699.70
2018-11-22T12:19:26.700Z,99697.52
2018-11-22T12:21:57.894Z,99687.64
2018-11-22T12:24:31.696Z,99695.92
2018-11-22T12:27:02.329Z,99688.06
2018-11-22T12:29:32.937Z,99689.22
2018-11-22T12:32:09.683Z,99689.50
2018-11-22T12:34:45.652Z,99689.88
2018-11-22T12:37:22.080Z,99629.95
2018-11-22T12:39:52.622Z,99398.61
2018-11-22T12:42:24.519Z,99687.06
2018-11-22T12:45:03.771Z,99678.93
2018-11-22T12:47:38.010Z,99680.19
2018-11-22T12:50:11.058Z,99683.59
2018-11-22T12:52:56.135Z,99686.36
2018-11-22T12:55:37.724Z,99685.86
2018-11-22T12:58:09.782Z,99690.14
2018-11-22T13:03:31.790Z,99692.34
2018-11-22T13:06:03.437Z,99689.46
2018-11-22T13:08:34.050Z,99697.61
2018-11-22T13:11:05.187Z,99701.86
2018-11-22T13:13:35.969Z,99697.17
2018-11-22T13:16:06.554Z,99693.48
2018-11-22T13:18:37.357Z,99697.48
2018-11-22T13:21:08.201Z,99692.98
2018-11-22T13:23:40.440Z,99693.62
2018-11-22T13:26:12.029Z,99697.43
2018-11-22T13:28:44.934Z,99694.70
2018-11-22T13:31:16.708Z,99699.20
2018-11-22T13:33:47.674Z,99695.22
2018-11-22T13:36:23.654Z,99693.11
2018-11-22T13:38:56.934Z,99695.84
2018-11-22T13:41:30.912Z,99696.69
2018-11-22T13:44:06.050Z,99701.42
2018-11-22T13:46:38.333Z,99697.08
2018-11-22T13:49:11.186Z,99698.67
2018-11-22T13:51:42.104Z,99703.55
2018-11-22T13:54:15.360Z,99704.53
2018-11-22T13:56:48.868Z,99709.00
2018-11-22T13:59:21.097Z,99708.69
2018-11-22T14:01:53.253Z,99711.00
2018-11-22T14:04:23.960Z,99720.52
2018-11-22T14:06:55.101Z,99710.34
2018-11-22T14:09:25.933Z,99711.66
2018-11-22T14:11:57.099Z,99713.40
2018-11-22T14:14:29.239Z,99713.94
2018-11-22T14:17:01.010Z,99725.56
2018-11-22T14:19:32.213Z,99709.31
2018-11-22T14:22:04.127Z,99710.45
2018-11-22T14:24:35.311Z,99711.23
2018-11-22T14:27:07.155Z,99711.55
2018-11-22T14:29:38.231Z,99703.81
2018-11-22T14:32:10.271Z,99715.02
2018-11-22T14:34:41.820Z,99714.41
2018-11-22T14:37:12.364Z,99711.50
2018-11-22T14:39:42.735Z,99717.23
2018-11-22T14:42:13.870Z,99720.25
2018-11-22T14:44:44.463Z,99719.61
2018-11-22T14:47:15.046Z,99712.77
2018-11-22T14:49:45.741Z,99712.83
2018-11-22T14:52:16.455Z,99712.42
2018-11-22T14:54:46.996Z,99711.61
2018-11-22T14:57:23.170Z,99709.31
2018-11-22T14:59:53.764Z,99711.23
2018-11-22T15:02:24.551Z,99707.62
2018-11-22T15:04:57.375Z,99715.48
2018-11-22T15:07:29.280Z,99713.16
2018-11-22T15:10:01.259Z,99714.27
2018-11-22T15:12:32.382Z,99714.00
2018-11-22T15:15:04.672Z,99716.30
2018-11-22T15:17:36.795Z,99714.30
2018-11-22T15:20:09.423Z,99717.95
2018-11-22T15:22:41.462Z,99716.55
2018-11-22T15:25:19.970Z,99720.28
2018-11-22T15:27:59.544Z,99724.47
2018-11-22T15:30:35.736Z,99716.51
2018-11-22T15:33:08.246Z,99728.02
2018-11-22T15:35:41.598Z,99725.95
2018-11-22T15:38:12.704Z,99732.60
2018-11-22T15:40:43.678Z,99733.98
2018-11-22T15:43:16.624Z,99732.33
2018-11-22T15:45:47.639Z,99735.97
2018-11-22T15:48:20.506Z,99738.22
2018-11-22T15:50:52.519Z,99738.81
2018-11-22T15:53:24.507Z,99739.71
2018-11-22T15:55:55.443Z,99744.05
2018-11-22T15:58:28.867Z,99743.96
2018-11-22T16:01:02.599Z,99747.95
2018-11-22T16:03:35.411Z,99750.05
2018-11-22T16:06:07.416Z,99749.79
2018-11-22T16:08:39.909Z,99757.69
2018-11-22T16:11:14.899Z,99757.75
2018-11-22T16:13:43.430Z,99759.56
2018-11-22T16:16:21.617Z,99755.84
2018-11-22T16:18:54.971Z,99764.23
2018-11-22T16:21:26.250Z,99765.85
2018-11-22T16:24:01.820Z,99761.68
2018-11-22T16:26:34.760Z,99767.33
2018-11-22T16:29:06.470Z,99768.09
2018-11-22T16:31:38.777Z,99765.10
2018-11-22T16:34:11.318Z,99770.64
2018-11-22T16:36:44.018Z,99768.67
2018-11-22T16:39:16.118Z,99771.98
2018-11-22T16:41:52.700Z,99767.70
2018-11-22T16:44:26.169Z,99770.16
2018-11-22T16:46:58.751Z,99764.50
2018-11-22T16:49:32.173Z,99767.50
2018-11-22T16:52:06.292Z,99762.89
2018-11-22T16:54:44.732Z,99769.84
2018-11-22T16:57:17.006Z,99757.91
2018-11-22T16:59:51.661Z,99754.14
2018-11-22T17:02:29.009Z,99755.39
2018-11-22T17:05:02.232Z,99754.39
2018-11-22T17:07:34.626Z,99752.23
2018-11-22T17:10:08.909Z,99754.94
2018-11-22T17:12:41.093Z,99758.47
2018-11-22T17:15:20.573Z,99753.49
2018-11-22T17:18:03.273Z,99754.05
2018-11-22T17:20:36.011Z,99757.37
2018-11-22T17:23:07.175Z,99758.00
2018-11-22T17:25:39.214Z,99755.56
2018-11-22T17:28:11.041Z,99763.92
2018-11-22T17:30:48.267Z,99757.37
2018-11-22T17:33:21.027Z,99758.19
2018-11-22T17:35:53.535Z,99757.91
2018-11-22T17:38:24.685Z,99764.05
2018-11-22T17:40:56.199Z,99758.97
2018-11-22T17:43:27.319Z,99761.27
2018-11-22T17:46:01.350Z,99763.68
2018-11-22T17:48:34.392Z,99759.78
2018-11-22T17:51:08.433Z,99769.61
2018-11-22T17:53:39.968Z,99761.84
2018-11-22T17:56:10.765Z,99765.19
2018-11-22T17:58:41.421Z,99761.56
2018-11-22T18:01:14.700Z,99760.30
2018-11-22T18:03:48.890Z,99761.53
2018-11-22T18:06:21.187Z,99762.69
2018-11-22T18:08:54.886Z,99765.42
2018-11-22T18:11:28.119Z,99761.50
2018-11-22T18:13:58.469Z,99756.69
2018-11-22T18:16:29.159Z,99759.06
2018-11-22T18:19:02.794Z,99757.25
2018-11-22T18:21:38.399Z,99757.97
2018-11-22T18:24:11.540Z,99764.45
2018-11-22T18:26:45.090Z,99761.03
2018-11-22T18:29:15.919Z,99762.98
2018-11-22T18:31:46.567Z,99753.67
2018-11-22T18:34:19.479Z,99752.80
2018-11-22T18:36:53.523Z,99753.01
2018-11-22T18:39:27.431Z,99753.47
2018-11-22T18:42:01.156Z,99756.36
2018-11-22T18:44:33.422Z,99752.34
2018-11-22T18:47:04.235Z,99757.31
2018-11-22T18:49:37.326Z,99752.57
2018-11-22T18:52:07.760Z,99750.39
2018-11-22T18:54:38.526Z,99755.25
2018-11-22T18:57:10.462Z,99747.55
2018-11-22T18:59:41.674Z,99746.91
2018-11-22T19:02:13.977Z,99752.16
2018-11-22T19:04:45.374Z,99741.05
2018-11-22T19:07:16.717Z,99739.39
2018-11-22T19:09:51.566Z,99735.68
2018-11-22T19:12:22.743Z,99735.25
2018-11-22T19:14:55.539Z,99739.55
2018-11-22T19:17:28.612Z,99738.41
2018-11-22T19:20:00.409Z,99735.45
2018-11-22T19:22:32.896Z,99732.63
2018-11-22T19:25:06.475Z,99731.55
2018-11-22T19:27:43.215Z,99738.88
2018-11-22T19:30:27.946Z,99731.02
2018-11-22T19:33:02.012Z,99735.61
2018-11-22T19:35:35.375Z,99740.87
2018-11-22T19:38:07.667Z,99737.31
2018-11-22T19:40:41.738Z,99748.14
2018-11-22T19:43:13.874Z,99747.45
2018-11-22T19:45:46.466Z,99758.58
2018-11-22T19:48:17.683Z,99752.54
2018-11-22T19:50:53.201Z,99756.16
2018-11-22T19:53:36.014Z,99758.06
2018-11-22T19:56:07.463Z,99759.47
2018-11-22T19:58:39.869Z,99755.73
2018-11-22T20:01:11.632Z,99755.13
2018-11-22T20:03:43.797Z,99755.88
2018-11-22T20:06:14.367Z,99765.91
2018-11-22T20:08:46.861Z,99770.51
2018-11-22T20:11:17.950Z,99773.98
2018-11-22T20:13:51.073Z,99770.99
2018-11-22T20:16:25.228Z,99774.20
2018-11-22T20:18:57.987Z,99772.67
2018-11-22T20:21:30.569Z,99769.37
2018-11-22T20:24:01.116Z,99771.42
2018-11-22T20:26:32.148Z,99772.91
2018-11-22T20:29:05.976Z,99775.16
2018-11-22T20:31:38.635Z,99773.11
2018-11-22T20:34:15.709Z,99765.44
2018-11-22T20:36:48.418Z,99766.04
2018-11-22T20:39:22.070Z,99769.60
2018-11-22T20:41:53.561Z,99764.67
2018-11-22T20:44:25.002Z,99768.98
2018-11-22T20:46:57.986Z,99764.77
2018-11-22T20:49:31.838Z,99775.42
2018-11-22T20:52:11.474Z,99764.56
2018-11-22T20:54:42.943Z,99770.03
2018-11-22T20:57:14.340Z,99762.48
2018-11-22T20:59:45.335Z,99769.75
2018-11-22T21:02:20.813Z,99766.52
2018-11-22T21:04:53.180Z,99767.42
2018-11-22T21:07:25.645Z,99761.78
2018-11-22T21:09:57.367Z,99772.70
2018-11-22T21:12:31.122Z,99768.77
2018-11-22T21:15:07.030Z,99774.75
2018-11-22T21:17:42.644Z,99774.09
2018-11-22T21:20:33.194Z,99775.03
2018-11-22T21:23:12.411Z,99765.08
2018-11-22T21:25:47.136Z,99768.91
2018-11-22T21:28:19.892Z,99767.34
2018-11-22T21:30:52.860Z,99765.84
2018-11-22T21:33:26.089Z,99775.11
2018-11-22T21:38:39.573Z,99769.72
2018-11-22T21:41:11.781Z,99770.61
2018-11-22T21:43:42.929Z,99773.48
2018-11-22T21:46:14.000Z,99772.18
2018-11-22T21:48:49.225Z,99770.78
2018-11-22T21:51:23.221Z,99774.04
2018-11-22T21:54:00.064Z,99770.88
2018-11-22T21:56:33.063Z,99767.84
2018-11-22T21:59:06.135Z,99765.08
2018-11-22T22:01:39.432Z,99765.02
2018-11-22T22:04:11.495Z,99766.24
2018-11-22T22:06:44.655Z,99760.62
2018-11-22T22:09:16.288Z,99758.88
2018-11-22T22:11:50.070Z,99763.86
2018-11-22T22:14:22.758Z,99762.25
2018-11-22T22:16:56.095Z,99761.76
2018-11-22T22:19:38.480Z,99762.87
2018-11-22T22:22:13.324Z,99751.72
2018-11-22T22:24:45.452Z,99753.41
2018-11-22T22:27:18.006Z,99760.34
2018-11-22T22:29:48.307Z,99752.69
2018-11-22T22:32:19.405Z,99757.68
2018-11-22T22:34:53.244Z,99723.96
2018-11-22T22:37:26.211Z,99756.87
2018-11-22T22:40:06.314Z,99756.20
2018-11-22T22:42:51.151Z,99757.73
2018-11-22T22:45:31.717Z,99749.80
2018-11-22T22:48:02.609Z,99754.69
2018-11-22T22:50:34.875Z,99756.30
2018-11-22T22:53:16.133Z,99761.30
2018-11-22T22:55:51.520Z,99755.16
2018-11-22T22:58:22.083Z,99546.70
2018-11-22T23:01:02.063Z,99752.28
2018-11-22T23:03:34.779Z,99757.07
2018-11-22T23:06:07.526Z,99753.00
2018-11-22T23:08:38.655Z,99747.76
2018-11-22T23:11:15.341Z,99751.63
2018-11-22T23:13:54.081Z,99750.27
2018-11-22T23:16:24.641Z,99747.65
2018-11-22T23:19:01.306Z,99752.89
2018-11-22T23:21:33.550Z,99750.93
2018-11-22T23:24:07.739Z,99746.91
2018-11-22T23:26:39.830Z,99748.73
2018-11-22T23:29:10.974Z,99741.55
2018-11-22T23:31:41.647Z,99737.59
2018-11-22T23:34:14.962Z,99738.06
2018-11-22T23:36:47.786Z,99733.38
2018-11-22T23:39:20.253Z,99738.91
2018-11-22T23:41:52.311Z,99735.36
2018-11-22T23:44:23.050Z,99732.25
2018-11-22T23:46:55.752Z,99736.47
2018-11-22T23:49:27.863Z,99740.75
2018-11-22T23:51:59.232Z,99734.55
2018-11-22T23:54:29.765Z,99738.66
2018-11-22T23:57:00.958Z,99745.76
2018-11-22T23:59:37.657Z,99738.65
